sensor_id;sensor_type;location;lat;lon;timestamp;temperature;humidity
11736;DHT22;5924;51.398;7.088;2023-05-07T00:01:27;13.60;99.90
11736;DHT22;5924;51.398;7.088;2023-05-07T00:03:52;13.60;99.90
11736;DHT22;5924;51.398;7.088;2023-05-07T00:06:18;13.60;99.90
11736;DHT22;5924;51.398;7.088;2023-05-07T00:08:45;13.60;99.90
11736;DHT22;5924;51.398;7.088;2023-05-07T00:11:10;13.60;99.90
11736;DHT22;5924;51.398;7.088;2023-05-07T00:13:36;13.60;99.90
11736;DHT22;5924;51.398;7.088;2023-05-07T00:16:04;13.60;99.90
11736;DHT22;5924;51.398;7.088;2023-05-07T00:18:30;13.60;99.90
11736;DHT22;5924;51.398;7.088;2023-05-07T00:20:56;13.60;99.90
11736;DHT22;5924;51.398;7.088;2023-05-07T00:23:22;13.60;99.90
11736;DHT22;5924;51.398;7.088;2023-05-07T00:25:48;13.50;99.90
11736;DHT22;5924;51.398;7.088;2023-05-07T00:28:14;13.50;99.90
11736;DHT22;5924;51.398;7.088;2023-05-07T00:30:39;13.50;99.90
11736;DHT22;5924;51.398;7.088;2023-05-07T00:33:05;13.40;99.90
11736;DHT22;5924;51.398;7.088;2023-05-07T00:35:31;13.40;99.90
11736;DHT22;5924;51.398;7.088;2023-05-07T00:37:57;13.40;99.90
11736;DHT22;5924;51.398;7.088;2023-05-07T00:40:22;13.40;99.90
11736;DHT22;5924;51.398;7.088;2023-05-07T00:42:48;13.40;99.90
11736;DHT22;5924;51.398;7.088;2023-05-07T00:45:15;13.30;99.90
11736;DHT22;5924;51.398;7.088;2023-05-07T00:47:41;13.30;99.90
11736;DHT22;5924;51.398;7.088;2023-05-07T00:50:08;13.20;99.90
11736;DHT22;5924;51.398;7.088;2023-05-07T00:52:35;13.20;99.90
11736;DHT22;5924;51.398;7.088;2023-05-07T00:55:06;13.10;99.90
11736;DHT22;5924;51.398;7.088;2023-05-07T00:57:40;13.00;99.90
11736;DHT22;5924;51.398;7.088;2023-05-07T01:00:06;12.90;99.90
11736;DHT22;5924;51.398;7.088;2023-05-07T01:02:34;12.90;99.90
11736;DHT22;5924;51.398;7.088;2023-05-07T01:05:01;12.90;99.90
11736;DHT22;5924;51.398;7.088;2023-05-07T01:07:27;12.90;99.90
11736;DHT22;5924;51.398;7.088;2023-05-07T01:09:53;12.80;99.90
11736;DHT22;5924;51.398;7.088;2023-05-07T01:12:19;12.80;99.90
11736;DHT22;5924;51.398;7.088;2023-05-07T01:14:45;12.80;99.90
11736;DHT22;5924;51.398;7.088;2023-05-07T01:17:11;12.80;99.90
11736;DHT22;5924;51.398;7.088;2023-05-07T01:19:36;12.80;99.90
11736;DHT22;5924;51.398;7.088;2023-05-07T01:22:09;12.80;99.90
11736;DHT22;5924;51.398;7.088;2023-05-07T01:24:36;12.90;99.90
11736;DHT22;5924;51.398;7.088;2023-05-07T01:27:03;12.90;99.90
11736;DHT22;5924;51.398;7.088;2023-05-07T01:29:29;12.90;99.90
11736;DHT22;5924;51.398;7.088;2023-05-07T01:31:59;14.10;99.90
11736;DHT22;5924;51.398;7.088;2023-05-07T01:34:26;12.90;99.90
11736;DHT22;5924;51.398;7.088;2023-05-07T01:36:54;12.90;99.90
11736;DHT22;5924;51.398;7.088;2023-05-07T01:39:22;12.90;99.90
11736;DHT22;5924;51.398;7.088;2023-05-07T01:41:49;12.90;99.90
11736;DHT22;5924;51.398;7.088;2023-05-07T01:44:15;13.30;99.90
11736;DHT22;5924;51.398;7.088;2023-05-07T01:46:41;12.90;99.90
11736;DHT22;5924;51.398;7.088;2023-05-07T01:49:07;12.90;99.90
11736;DHT22;5924;51.398;7.088;2023-05-07T01:51:34;12.90;99.90
11736;DHT22;5924;51.398;7.088;2023-05-07T01:53:59;12.90;99.90
11736;DHT22;5924;51.398;7.088;2023-05-07T01:56:25;12.90;99.90
11736;DHT22;5924;51.398;7.088;2023-05-07T01:58:51;12.90;99.90
11736;DHT22;5924;51.398;7.088;2023-05-07T02:01:17;12.90;99.90
11736;DHT22;5924;51.398;7.088;2023-05-07T02:03:43;12.80;99.90
11736;DHT22;5924;51.398;7.088;2023-05-07T02:06:09;12.80;99.90
11736;DHT22;5924;51.398;7.088;2023-05-07T02:08:35;12.80;99.90
11736;DHT22;5924;51.398;7.088;2023-05-07T02:11:01;12.80;99.90
11736;DHT22;5924;51.398;7.088;2023-05-07T02:13:31;12.80;99.90
11736;DHT22;5924;51.398;7.088;2023-05-07T02:15:57;12.70;99.90
11736;DHT22;5924;51.398;7.088;2023-05-07T02:18:23;12.70;99.90
11736;DHT22;5924;51.398;7.088;2023-05-07T02:20:48;12.70;99.90
11736;DHT22;5924;51.398;7.088;2023-05-07T02:23:14;12.60;99.90
11736;DHT22;5924;51.398;7.088;2023-05-07T02:25:40;12.60;99.90
11736;DHT22;5924;51.398;7.088;2023-05-07T02:28:05;12.60;99.90
11736;DHT22;5924;51.398;7.088;2023-05-07T02:30:32;12.50;99.90
11736;DHT22;5924;51.398;7.088;2023-05-07T02:32:58;12.40;99.90
11736;DHT22;5924;51.398;7.088;2023-05-07T02:35:24;12.40;99.90
11736;DHT22;5924;51.398;7.088;2023-05-07T02:37:50;12.30;99.90
11736;DHT22;5924;51.398;7.088;2023-05-07T02:40:16;12.20;99.90
11736;DHT22;5924;51.398;7.088;2023-05-07T02:42:42;12.20;99.90
11736;DHT22;5924;51.398;7.088;2023-05-07T02:45:08;12.20;99.90
11736;DHT22;5924;51.398;7.088;2023-05-07T02:47:34;12.10;99.90
11736;DHT22;5924;51.398;7.088;2023-05-07T02:49:59;12.10;99.90
11736;DHT22;5924;51.398;7.088;2023-05-07T02:52:25;12.00;99.90
11736;DHT22;5924;51.398;7.088;2023-05-07T02:54:51;12.00;99.90
11736;DHT22;5924;51.398;7.088;2023-05-07T02:57:16;12.00;99.90
11736;DHT22;5924;51.398;7.088;2023-05-07T02:59:42;12.00;99.90
11736;DHT22;5924;51.398;7.088;2023-05-07T03:02:08;11.90;99.90
11736;DHT22;5924;51.398;7.088;2023-05-07T03:04:34;11.90;99.90
11736;DHT22;5924;51.398;7.088;2023-05-07T03:06:59;11.90;99.90
11736;DHT22;5924;51.398;7.088;2023-05-07T03:09:25;13.70;99.90
11736;DHT22;5924;51.398;7.088;2023-05-07T03:11:51;11.80;99.90
11736;DHT22;5924;51.398;7.088;2023-05-07T03:14:17;11.80;99.90
11736;DHT22;5924;51.398;7.088;2023-05-07T03:16:42;11.80;99.90
11736;DHT22;5924;51.398;7.088;2023-05-07T03:19:08;11.80;99.90
11736;DHT22;5924;51.398;7.088;2023-05-07T03:21:34;11.90;99.90
11736;DHT22;5924;51.398;7.088;2023-05-07T03:24:00;11.90;99.90
11736;DHT22;5924;51.398;7.088;2023-05-07T03:26:25;11.90;99.90
11736;DHT22;5924;51.398;7.088;2023-05-07T03:28:51;11.90;99.90
11736;DHT22;5924;51.398;7.088;2023-05-07T03:31:17;11.90;99.90
11736;DHT22;5924;51.398;7.088;2023-05-07T03:33:56;11.80;99.90
11736;DHT22;5924;51.398;7.088;2023-05-07T03:36:22;11.80;99.90
11736;DHT22;5924;51.398;7.088;2023-05-07T03:38:48;11.80;99.90
11736;DHT22;5924;51.398;7.088;2023-05-07T03:41:14;11.70;99.90
11736;DHT22;5924;51.398;7.088;2023-05-07T03:43:40;11.70;99.90
11736;DHT22;5924;51.398;7.088;2023-05-07T03:46:06;11.70;99.90
11736;DHT22;5924;51.398;7.088;2023-05-07T03:48:31;11.60;99.90
11736;DHT22;5924;51.398;7.088;2023-05-07T03:50:59;11.60;99.90
11736;DHT22;5924;51.398;7.088;2023-05-07T03:53:24;11.60;99.90
11736;DHT22;5924;51.398;7.088;2023-05-07T03:55:50;11.50;99.90
11736;DHT22;5924;51.398;7.088;2023-05-07T03:58:16;11.50;99.90
11736;DHT22;5924;51.398;7.088;2023-05-07T04:00:42;11.50;99.90
11736;DHT22;5924;51.398;7.088;2023-05-07T04:03:08;11.50;99.90
11736;DHT22;5924;51.398;7.088;2023-05-07T04:05:34;11.50;99.90
11736;DHT22;5924;51.398;7.088;2023-05-07T04:08:00;11.50;99.90
11736;DHT22;5924;51.398;7.088;2023-05-07T04:10:26;11.50;99.90
11736;DHT22;5924;51.398;7.088;2023-05-07T04:12:51;11.50;99.90
11736;DHT22;5924;51.398;7.088;2023-05-07T04:15:17;11.50;99.90
11736;DHT22;5924;51.398;7.088;2023-05-07T04:17:43;11.50;99.90
11736;DHT22;5924;51.398;7.088;2023-05-07T04:20:16;11.60;99.90
11736;DHT22;5924;51.398;7.088;2023-05-07T04:22:50;11.60;99.90
11736;DHT22;5924;51.398;7.088;2023-05-07T04:25:16;11.60;99.90
11736;DHT22;5924;51.398;7.088;2023-05-07T04:27:42;11.70;99.90
11736;DHT22;5924;51.398;7.088;2023-05-07T04:30:07;11.70;99.90
11736;DHT22;5924;51.398;7.088;2023-05-07T04:32:33;11.70;99.90
11736;DHT22;5924;51.398;7.088;2023-05-07T04:35:05;11.80;99.90
11736;DHT22;5924;51.398;7.088;2023-05-07T04:37:32;11.80;99.90
11736;DHT22;5924;51.398;7.088;2023-05-07T04:39:58;11.80;99.90
11736;DHT22;5924;51.398;7.088;2023-05-07T04:42:23;11.90;99.90
11736;DHT22;5924;51.398;7.088;2023-05-07T04:44:53;12.00;99.90
11736;DHT22;5924;51.398;7.088;2023-05-07T04:47:18;12.10;99.90
11736;DHT22;5924;51.398;7.088;2023-05-07T04:49:44;12.10;99.90
11736;DHT22;5924;51.398;7.088;2023-05-07T04:52:09;12.20;99.90
11736;DHT22;5924;51.398;7.088;2023-05-07T04:55:01;12.20;99.90
11736;DHT22;5924;51.398;7.088;2023-05-07T04:57:27;12.30;99.90
11736;DHT22;5924;51.398;7.088;2023-05-07T05:00:03;12.30;99.90
11736;DHT22;5924;51.398;7.088;2023-05-07T05:02:33;12.40;99.90
11736;DHT22;5924;51.398;7.088;2023-05-07T05:05:00;12.40;99.90
11736;DHT22;5924;51.398;7.088;2023-05-07T05:07:26;12.50;99.90
11736;DHT22;5924;51.398;7.088;2023-05-07T05:09:52;12.50;99.90
11736;DHT22;5924;51.398;7.088;2023-05-07T05:12:18;12.60;99.90
11736;DHT22;5924;51.398;7.088;2023-05-07T05:14:43;12.60;99.90
11736;DHT22;5924;51.398;7.088;2023-05-07T05:17:09;12.60;99.90
11736;DHT22;5924;51.398;7.088;2023-05-07T05:19:34;12.70;99.90
11736;DHT22;5924;51.398;7.088;2023-05-07T05:22:00;12.80;99.90
11736;DHT22;5924;51.398;7.088;2023-05-07T05:24:26;12.80;99.90
11736;DHT22;5924;51.398;7.088;2023-05-07T05:26:53;12.90;99.90
11736;DHT22;5924;51.398;7.088;2023-05-07T05:29:19;13.00;99.90
11736;DHT22;5924;51.398;7.088;2023-05-07T05:31:44;13.10;99.90
11736;DHT22;5924;51.398;7.088;2023-05-07T05:34:11;13.20;99.90
11736;DHT22;5924;51.398;7.088;2023-05-07T05:36:40;13.20;99.90
11736;DHT22;5924;51.398;7.088;2023-05-07T05:39:08;13.20;99.90
11736;DHT22;5924;51.398;7.088;2023-05-07T05:41:34;13.30;99.90
11736;DHT22;5924;51.398;7.088;2023-05-07T05:43:59;13.40;99.90
11736;DHT22;5924;51.398;7.088;2023-05-07T05:46:25;13.40;99.90
11736;DHT22;5924;51.398;7.088;2023-05-07T05:48:50;13.50;99.90
11736;DHT22;5924;51.398;7.088;2023-05-07T05:51:16;13.50;99.90
11736;DHT22;5924;51.398;7.088;2023-05-07T05:53:42;13.60;99.90
11736;DHT22;5924;51.398;7.088;2023-05-07T05:56:10;13.70;99.90
11736;DHT22;5924;51.398;7.088;2023-05-07T05:58:39;14.20;99.90
11736;DHT22;5924;51.398;7.088;2023-05-07T06:01:04;13.90;99.90
11736;DHT22;5924;51.398;7.088;2023-05-07T06:03:30;14.00;99.90
11736;DHT22;5924;51.398;7.088;2023-05-07T06:06:02;14.10;99.90
11736;DHT22;5924;51.398;7.088;2023-05-07T06:08:31;14.30;99.90
11736;DHT22;5924;51.398;7.088;2023-05-07T06:10:57;14.40;99.90
11736;DHT22;5924;51.398;7.088;2023-05-07T06:13:23;14.50;99.90
11736;DHT22;5924;51.398;7.088;2023-05-07T06:15:49;14.60;99.90
11736;DHT22;5924;51.398;7.088;2023-05-07T06:18:15;14.70;99.90
11736;DHT22;5924;51.398;7.088;2023-05-07T06:20:40;14.80;99.90
11736;DHT22;5924;51.398;7.088;2023-05-07T06:23:06;14.80;99.90
11736;DHT22;5924;51.398;7.088;2023-05-07T06:25:37;15.00;99.90
11736;DHT22;5924;51.398;7.088;2023-05-07T06:28:06;15.00;99.90
11736;DHT22;5924;51.398;7.088;2023-05-07T06:30:33;15.20;99.90
11736;DHT22;5924;51.398;7.088;2023-05-07T06:32:59;15.30;99.90
11736;DHT22;5924;51.398;7.088;2023-05-07T06:35:25;15.40;99.90
11736;DHT22;5924;51.398;7.088;2023-05-07T06:37:50;15.50;99.90
11736;DHT22;5924;51.398;7.088;2023-05-07T06:40:16;15.60;99.90
11736;DHT22;5924;51.398;7.088;2023-05-07T06:42:42;15.70;99.90
11736;DHT22;5924;51.398;7.088;2023-05-07T06:45:13;15.70;99.90
11736;DHT22;5924;51.398;7.088;2023-05-07T06:47:38;15.80;99.90
11736;DHT22;5924;51.398;7.088;2023-05-07T06:50:04;15.90;99.90
11736;DHT22;5924;51.398;7.088;2023-05-07T06:52:33;15.90;99.90
11736;DHT22;5924;51.398;7.088;2023-05-07T06:54:59;16.00;99.90
11736;DHT22;5924;51.398;7.088;2023-05-07T06:57:25;16.10;99.90
11736;DHT22;5924;51.398;7.088;2023-05-07T06:59:56;16.20;99.90
11736;DHT22;5924;51.398;7.088;2023-05-07T07:02:22;16.40;99.90
11736;DHT22;5924;51.398;7.088;2023-05-07T07:04:50;16.50;99.90
11736;DHT22;5924;51.398;7.088;2023-05-07T07:07:18;16.60;99.90
11736;DHT22;5924;51.398;7.088;2023-05-07T07:09:44;16.50;99.90
11736;DHT22;5924;51.398;7.088;2023-05-07T07:12:10;16.50;99.90
11736;DHT22;5924;51.398;7.088;2023-05-07T07:14:36;16.60;99.90
11736;DHT22;5924;51.398;7.088;2023-05-07T07:17:01;16.60;99.90
11736;DHT22;5924;51.398;7.088;2023-05-07T07:19:27;16.80;99.90
11736;DHT22;5924;51.398;7.088;2023-05-07T07:21:55;16.90;99.90
11736;DHT22;5924;51.398;7.088;2023-05-07T07:24:21;17.00;99.90
11736;DHT22;5924;51.398;7.088;2023-05-07T07:26:55;17.20;99.90
11736;DHT22;5924;51.398;7.088;2023-05-07T07:29:22;17.20;99.90
11736;DHT22;5924;51.398;7.088;2023-05-07T07:31:48;17.30;99.90
11736;DHT22;5924;51.398;7.088;2023-05-07T07:34:15;17.30;99.90
11736;DHT22;5924;51.398;7.088;2023-05-07T07:36:41;18.00;99.90
11736;DHT22;5924;51.398;7.088;2023-05-07T07:39:15;17.40;99.90
11736;DHT22;5924;51.398;7.088;2023-05-07T07:41:40;17.50;99.90
11736;DHT22;5924;51.398;7.088;2023-05-07T07:44:06;17.50;99.90
11736;DHT22;5924;51.398;7.088;2023-05-07T07:46:35;17.70;99.90
11736;DHT22;5924;51.398;7.088;2023-05-07T07:49:01;17.70;99.90
11736;DHT22;5924;51.398;7.088;2023-05-07T07:51:29;17.70;99.90
11736;DHT22;5924;51.398;7.088;2023-05-07T07:53:55;17.80;99.90
11736;DHT22;5924;51.398;7.088;2023-05-07T07:56:23;17.80;99.90
11736;DHT22;5924;51.398;7.088;2023-05-07T07:58:54;17.80;99.90
11736;DHT22;5924;51.398;7.088;2023-05-07T08:01:32;17.80;99.90
11736;DHT22;5924;51.398;7.088;2023-05-07T08:04:00;17.80;99.90
11736;DHT22;5924;51.398;7.088;2023-05-07T08:06:28;17.80;99.90
11736;DHT22;5924;51.398;7.088;2023-05-07T08:08:57;18.00;99.90
11736;DHT22;5924;51.398;7.088;2023-05-07T08:11:29;18.20;99.90
11736;DHT22;5924;51.398;7.088;2023-05-07T08:14:03;18.40;99.90
11736;DHT22;5924;51.398;7.088;2023-05-07T08:16:34;18.50;99.90
11736;DHT22;5924;51.398;7.088;2023-05-07T08:19:03;18.60;99.90
11736;DHT22;5924;51.398;7.088;2023-05-07T08:21:28;18.60;99.90
11736;DHT22;5924;51.398;7.088;2023-05-07T08:23:54;18.80;99.90
11736;DHT22;5924;51.398;7.088;2023-05-07T08:26:20;18.90;99.90
11736;DHT22;5924;51.398;7.088;2023-05-07T08:28:51;19.00;99.90
11736;DHT22;5924;51.398;7.088;2023-05-07T08:31:16;19.10;99.90
11736;DHT22;5924;51.398;7.088;2023-05-07T08:33:45;19.30;99.90
11736;DHT22;5924;51.398;7.088;2023-05-07T08:36:16;19.40;99.90
11736;DHT22;5924;51.398;7.088;2023-05-07T08:38:47;19.40;99.90
11736;DHT22;5924;51.398;7.088;2023-05-07T08:41:25;19.50;99.90
11736;DHT22;5924;51.398;7.088;2023-05-07T08:43:51;19.50;99.90
11736;DHT22;5924;51.398;7.088;2023-05-07T08:46:20;19.60;99.90
11736;DHT22;5924;51.398;7.088;2023-05-07T08:48:52;19.60;99.90
11736;DHT22;5924;51.398;7.088;2023-05-07T08:51:21;19.80;99.90
11736;DHT22;5924;51.398;7.088;2023-05-07T08:53:48;20.00;99.90
11736;DHT22;5924;51.398;7.088;2023-05-07T08:56:15;20.10;99.90
11736;DHT22;5924;51.398;7.088;2023-05-07T08:58:44;20.30;99.90
11736;DHT22;5924;51.398;7.088;2023-05-07T09:01:13;20.30;99.90
11736;DHT22;5924;51.398;7.088;2023-05-07T09:03:39;20.40;99.90
11736;DHT22;5924;51.398;7.088;2023-05-07T09:06:06;20.30;99.90
11736;DHT22;5924;51.398;7.088;2023-05-07T09:08:33;20.40;99.90
11736;DHT22;5924;51.398;7.088;2023-05-07T09:11:11;20.60;99.90
11736;DHT22;5924;51.398;7.088;2023-05-07T09:13:58;20.70;99.90
11736;DHT22;5924;51.398;7.088;2023-05-07T09:16:26;20.90;99.90
11736;DHT22;5924;51.398;7.088;2023-05-07T09:18:53;20.90;99.90
11736;DHT22;5924;51.398;7.088;2023-05-07T09:21:19;20.70;99.90
11736;DHT22;5924;51.398;7.088;2023-05-07T09:23:51;20.80;99.90
11736;DHT22;5924;51.398;7.088;2023-05-07T09:26:18;21.00;99.90
11736;DHT22;5924;51.398;7.088;2023-05-07T09:28:53;21.10;99.90
11736;DHT22;5924;51.398;7.088;2023-05-07T09:31:24;21.20;99.90
11736;DHT22;5924;51.398;7.088;2023-05-07T09:33:50;21.10;99.90
11736;DHT22;5924;51.398;7.088;2023-05-07T09:36:29;21.20;99.90
11736;DHT22;5924;51.398;7.088;2023-05-07T09:38:59;21.20;99.90
11736;DHT22;5924;51.398;7.088;2023-05-07T09:41:30;21.50;99.90
11736;DHT22;5924;51.398;7.088;2023-05-07T09:43:56;21.60;99.90
11736;DHT22;5924;51.398;7.088;2023-05-07T09:46:27;21.70;99.90
11736;DHT22;5924;51.398;7.088;2023-05-07T09:49:06;21.80;99.90
11736;DHT22;5924;51.398;7.088;2023-05-07T09:51:49;21.90;99.90
11736;DHT22;5924;51.398;7.088;2023-05-07T09:54:16;22.10;99.90
11736;DHT22;5924;51.398;7.088;2023-05-07T09:56:43;22.30;99.90
11736;DHT22;5924;51.398;7.088;2023-05-07T09:59:14;22.70;99.90
11736;DHT22;5924;51.398;7.088;2023-05-07T10:01:49;23.00;99.90
11736;DHT22;5924;51.398;7.088;2023-05-07T10:04:25;23.20;99.90
11736;DHT22;5924;51.398;7.088;2023-05-07T10:06:54;23.20;99.90
11736;DHT22;5924;51.398;7.088;2023-05-07T10:09:21;23.10;99.90
11736;DHT22;5924;51.398;7.088;2023-05-07T10:11:51;23.20;99.90
11736;DHT22;5924;51.398;7.088;2023-05-07T10:14:17;23.30;99.90
11736;DHT22;5924;51.398;7.088;2023-05-07T10:16:47;23.10;99.90
11736;DHT22;5924;51.398;7.088;2023-05-07T10:19:14;23.20;99.90
11736;DHT22;5924;51.398;7.088;2023-05-07T10:21:48;23.10;99.90
11736;DHT22;5924;51.398;7.088;2023-05-07T10:24:26;22.90;99.90
11736;DHT22;5924;51.398;7.088;2023-05-07T10:26:56;22.60;99.90
11736;DHT22;5924;51.398;7.088;2023-05-07T10:35:02;23.30;99.90
11736;DHT22;5924;51.398;7.088;2023-05-07T10:37:31;23.50;99.90
11736;DHT22;5924;51.398;7.088;2023-05-07T10:40:07;23.40;99.90
11736;DHT22;5924;51.398;7.088;2023-05-07T10:42:44;23.40;99.90
11736;DHT22;5924;51.398;7.088;2023-05-07T10:45:28;23.50;99.90
11736;DHT22;5924;51.398;7.088;2023-05-07T10:50:38;23.50;99.90
11736;DHT22;5924;51.398;7.088;2023-05-07T10:59:15;23.40;99.90
11736;DHT22;5924;51.398;7.088;2023-05-07T11:01:52;23.60;99.90
11736;DHT22;5924;51.398;7.088;2023-05-07T11:04:18;23.40;99.90
11736;DHT22;5924;51.398;7.088;2023-05-07T11:10:03;23.20;99.90
11736;DHT22;5924;51.398;7.088;2023-05-07T11:15:06;22.90;99.90
11736;DHT22;5924;51.398;7.088;2023-05-07T11:17:33;22.80;99.90
11736;DHT22;5924;51.398;7.088;2023-05-07T11:20:01;22.90;99.90
11736;DHT22;5924;51.398;7.088;2023-05-07T11:24:56;23.30;99.90
11736;DHT22;5924;51.398;7.088;2023-05-07T11:27:29;23.60;99.90
11736;DHT22;5924;51.398;7.088;2023-05-07T11:29:55;23.90;99.90
11736;DHT22;5924;51.398;7.088;2023-05-07T11:32:25;23.80;99.90
11736;DHT22;5924;51.398;7.088;2023-05-07T11:34:54;23.60;99.90
11736;DHT22;5924;51.398;7.088;2023-05-07T11:37:26;23.50;99.90
11736;DHT22;5924;51.398;7.088;2023-05-07T11:40:06;23.50;99.90
11736;DHT22;5924;51.398;7.088;2023-05-07T11:42:54;23.40;99.90
11736;DHT22;5924;51.398;7.088;2023-05-07T11:45:25;23.40;99.90
11736;DHT22;5924;51.398;7.088;2023-05-07T11:47:51;23.40;99.90
11736;DHT22;5924;51.398;7.088;2023-05-07T11:50:16;23.40;99.90
11736;DHT22;5924;51.398;7.088;2023-05-07T11:52:50;23.40;99.90
11736;DHT22;5924;51.398;7.088;2023-05-07T11:55:18;23.40;99.90
11736;DHT22;5924;51.398;7.088;2023-05-07T11:57:44;23.30;99.90
11736;DHT22;5924;51.398;7.088;2023-05-07T12:00:10;23.20;99.90
11736;DHT22;5924;51.398;7.088;2023-05-07T12:02:36;23.30;99.90
11736;DHT22;5924;51.398;7.088;2023-05-07T12:05:02;23.30;99.90
11736;DHT22;5924;51.398;7.088;2023-05-07T12:07:28;23.30;99.90
11736;DHT22;5924;51.398;7.088;2023-05-07T12:09:53;23.20;99.90
11736;DHT22;5924;51.398;7.088;2023-05-07T12:12:19;23.20;99.90
11736;DHT22;5924;51.398;7.088;2023-05-07T12:14:46;23.30;99.90
11736;DHT22;5924;51.398;7.088;2023-05-07T12:17:13;23.40;99.90
11736;DHT22;5924;51.398;7.088;2023-05-07T12:19:40;23.50;99.90
11736;DHT22;5924;51.398;7.088;2023-05-07T12:22:10;23.80;99.90
11736;DHT22;5924;51.398;7.088;2023-05-07T12:27:11;25.50;99.90
11736;DHT22;5924;51.398;7.088;2023-05-07T12:29:37;25.80;99.90
11736;DHT22;5924;51.398;7.088;2023-05-07T12:32:06;25.50;99.90
11736;DHT22;5924;51.398;7.088;2023-05-07T12:34:32;25.30;99.90
11736;DHT22;5924;51.398;7.088;2023-05-07T12:37:02;25.10;99.90
11736;DHT22;5924;51.398;7.088;2023-05-07T12:39:28;24.80;99.90
11736;DHT22;5924;51.398;7.088;2023-05-07T12:41:54;24.40;99.90
11736;DHT22;5924;51.398;7.088;2023-05-07T12:44:25;24.10;99.90
11736;DHT22;5924;51.398;7.088;2023-05-07T12:46:51;23.80;99.90
11736;DHT22;5924;51.398;7.088;2023-05-07T12:49:17;23.70;99.90
11736;DHT22;5924;51.398;7.088;2023-05-07T12:51:47;23.50;99.90
11736;DHT22;5924;51.398;7.088;2023-05-07T12:54:14;23.30;99.90
11736;DHT22;5924;51.398;7.088;2023-05-07T12:56:39;23.00;99.90
11736;DHT22;5924;51.398;7.088;2023-05-07T12:59:05;22.60;99.90
11736;DHT22;5924;51.398;7.088;2023-05-07T13:01:33;22.40;99.90
11736;DHT22;5924;51.398;7.088;2023-05-07T13:04:05;22.00;99.90
11736;DHT22;5924;51.398;7.088;2023-05-07T13:06:31;21.70;99.90
11736;DHT22;5924;51.398;7.088;2023-05-07T13:08:56;21.40;99.90
11736;DHT22;5924;51.398;7.088;2023-05-07T13:11:22;21.20;99.90
11736;DHT22;5924;51.398;7.088;2023-05-07T13:13:48;21.10;99.90
11736;DHT22;5924;51.398;7.088;2023-05-07T13:16:14;21.10;99.90
11736;DHT22;5924;51.398;7.088;2023-05-07T13:18:40;21.00;99.90
11736;DHT22;5924;51.398;7.088;2023-05-07T13:21:06;21.00;99.90
11736;DHT22;5924;51.398;7.088;2023-05-07T13:23:32;20.90;99.90
11736;DHT22;5924;51.398;7.088;2023-05-07T13:25:57;20.80;99.90
11736;DHT22;5924;51.398;7.088;2023-05-07T13:28:24;20.70;99.90
11736;DHT22;5924;51.398;7.088;2023-05-07T13:30:50;20.60;99.90
11736;DHT22;5924;51.398;7.088;2023-05-07T13:33:17;20.40;99.90
11736;DHT22;5924;51.398;7.088;2023-05-07T13:35:43;20.20;99.90
11736;DHT22;5924;51.398;7.088;2023-05-07T13:38:08;19.90;99.90
11736;DHT22;5924;51.398;7.088;2023-05-07T13:40:34;20.00;99.90
11736;DHT22;5924;51.398;7.088;2023-05-07T13:43:00;19.90;99.90
11736;DHT22;5924;51.398;7.088;2023-05-07T13:45:29;19.80;99.90
11736;DHT22;5924;51.398;7.088;2023-05-07T13:47:56;19.70;99.90
11736;DHT22;5924;51.398;7.088;2023-05-07T13:50:22;19.60;99.90
11736;DHT22;5924;51.398;7.088;2023-05-07T13:52:48;19.60;99.90
11736;DHT22;5924;51.398;7.088;2023-05-07T13:55:20;19.50;99.90
11736;DHT22;5924;51.398;7.088;2023-05-07T13:57:46;19.40;99.90
11736;DHT22;5924;51.398;7.088;2023-05-07T14:00:13;19.40;99.90
11736;DHT22;5924;51.398;7.088;2023-05-07T14:02:39;19.30;99.90
11736;DHT22;5924;51.398;7.088;2023-05-07T14:05:06;19.30;99.90
11736;DHT22;5924;51.398;7.088;2023-05-07T14:07:31;19.30;99.90
11736;DHT22;5924;51.398;7.088;2023-05-07T14:09:57;19.20;99.90
11736;DHT22;5924;51.398;7.088;2023-05-07T14:12:23;19.20;99.90
11736;DHT22;5924;51.398;7.088;2023-05-07T14:14:48;19.20;99.90
11736;DHT22;5924;51.398;7.088;2023-05-07T14:17:16;19.20;99.90
11736;DHT22;5924;51.398;7.088;2023-05-07T14:19:42;19.10;99.90
11736;DHT22;5924;51.398;7.088;2023-05-07T14:22:08;19.00;99.90
11736;DHT22;5924;51.398;7.088;2023-05-07T14:24:34;18.90;99.90
11736;DHT22;5924;51.398;7.088;2023-05-07T14:27:00;18.80;99.90
11736;DHT22;5924;51.398;7.088;2023-05-07T14:29:25;18.70;99.90
11736;DHT22;5924;51.398;7.088;2023-05-07T14:31:51;18.60;99.90
11736;DHT22;5924;51.398;7.088;2023-05-07T14:34:16;18.60;99.90
11736;DHT22;5924;51.398;7.088;2023-05-07T14:36:42;18.50;99.90
11736;DHT22;5924;51.398;7.088;2023-05-07T14:39:09;18.40;99.90
11736;DHT22;5924;51.398;7.088;2023-05-07T14:41:35;18.40;99.90
11736;DHT22;5924;51.398;7.088;2023-05-07T14:44:00;18.30;99.90
11736;DHT22;5924;51.398;7.088;2023-05-07T14:46:36;18.30;99.90
11736;DHT22;5924;51.398;7.088;2023-05-07T14:49:02;18.30;99.90
11736;DHT22;5924;51.398;7.088;2023-05-07T14:51:37;18.30;99.90
11736;DHT22;5924;51.398;7.088;2023-05-07T14:54:02;18.30;99.90
11736;DHT22;5924;51.398;7.088;2023-05-07T14:56:28;18.30;99.90
11736;DHT22;5924;51.398;7.088;2023-05-07T14:59:09;18.30;99.90
11736;DHT22;5924;51.398;7.088;2023-05-07T15:01:35;18.30;99.90
11736;DHT22;5924;51.398;7.088;2023-05-07T15:04:03;18.30;99.90
11736;DHT22;5924;51.398;7.088;2023-05-07T15:06:28;18.30;99.90
11736;DHT22;5924;51.398;7.088;2023-05-07T15:08:54;18.30;99.90
11736;DHT22;5924;51.398;7.088;2023-05-07T15:11:20;18.40;99.90
11736;DHT22;5924;51.398;7.088;2023-05-07T15:13:46;18.40;99.90
11736;DHT22;5924;51.398;7.088;2023-05-07T15:16:11;18.40;99.90
11736;DHT22;5924;51.398;7.088;2023-05-07T15:18:37;18.40;99.90
11736;DHT22;5924;51.398;7.088;2023-05-07T15:21:03;18.40;99.90
11736;DHT22;5924;51.398;7.088;2023-05-07T15:23:28;18.40;99.90
11736;DHT22;5924;51.398;7.088;2023-05-07T15:25:54;18.40;99.90
11736;DHT22;5924;51.398;7.088;2023-05-07T15:28:20;18.50;99.90
11736;DHT22;5924;51.398;7.088;2023-05-07T15:30:46;18.50;99.90
11736;DHT22;5924;51.398;7.088;2023-05-07T15:33:11;18.60;99.90
11736;DHT22;5924;51.398;7.088;2023-05-07T15:35:37;18.60;99.90
11736;DHT22;5924;51.398;7.088;2023-05-07T15:38:03;18.60;99.90
11736;DHT22;5924;51.398;7.088;2023-05-07T15:40:29;18.60;99.90
11736;DHT22;5924;51.398;7.088;2023-05-07T15:42:55;18.70;99.90
11736;DHT22;5924;51.398;7.088;2023-05-07T15:45:23;18.70;99.90
11736;DHT22;5924;51.398;7.088;2023-05-07T15:47:49;18.80;99.90
11736;DHT22;5924;51.398;7.088;2023-05-07T15:50:14;18.80;99.90
11736;DHT22;5924;51.398;7.088;2023-05-07T15:52:40;18.90;99.90
11736;DHT22;5924;51.398;7.088;2023-05-07T15:55:07;18.90;99.90
11736;DHT22;5924;51.398;7.088;2023-05-07T15:57:34;18.90;99.90
11736;DHT22;5924;51.398;7.088;2023-05-07T16:00:00;18.90;99.90
11736;DHT22;5924;51.398;7.088;2023-05-07T16:02:26;18.90;99.90
11736;DHT22;5924;51.398;7.088;2023-05-07T16:04:52;18.90;99.90
11736;DHT22;5924;51.398;7.088;2023-05-07T16:07:17;19.00;99.90
11736;DHT22;5924;51.398;7.088;2023-05-07T16:09:44;19.00;99.90
11736;DHT22;5924;51.398;7.088;2023-05-07T16:12:10;19.00;99.90